K&a Sp — 3FVZ3 — position and weather

sailwx.info

Track history (hours):
 
Tides and Currents Weather Stations Pressure Air Temp Water Temp Dewpoint Dewpoint Depression Visibility Wind Speed Wind Dir Waves Ship Positions

K&a Sp

Last reported at 2014-Nov-23 10:28 UTC. Time now 2014-Nov-28 17:04 UTC.
Position N 31°06' E 122°27'.

Length 177 m; draft 10.4 m.

Type: Cargo ship. MMSI: 354085000.

Date/timePositionNaut miles runAvg speedWind from/ knotsBaromVisibWave heightAir tempDewpointWater temp
2014-Nov-23 10:28N 31°06' E 122°27'1010.6
2014-Nov-23 09:34N 31°08' E 122°16'1414.3
2014-Nov-23 08:34N 31°15' E 122°01'1313.0
2014-Nov-23 07:33N 31°18' E 121°47'10 9.9
2014-Nov-23 06:33N 31°23' E 121°36'7 7.3
2014-Nov-23 05:33N 31°26' E 121°29'8 7.7
2014-Nov-23 04:33N 31°32' E 121°22'9 9.2
2014-Nov-23 03:33N 31°38' E 121°15'1211.4
2014-Nov-23 02:33N 31°45' E 121°04'1211.8
2014-Nov-23 01:34N 31°53' E 120°53'2 2.2
2014-Nov-23 00:26N 31°55' E 120°53'0 0.0
2014-Nov-22 23:32N 31°55' E 120°53'0 0.0
2014-Nov-22 22:29N 31°55' E 120°53'0 0.0
2014-Nov-22 21:29N 31°55' E 120°53'0 0.2
2014-Nov-22 20:32N 31°55' E 120°53'0 0.1
2014-Nov-22 19:20N 31°55' E 120°53'0 0.0
2014-Nov-22 18:33N 31°55' E 120°53'0 0.0
2014-Nov-22 17:20N 31°55' E 120°53'0 0.2
2014-Nov-22 16:32N 31°55' E 120°53'0 0.1
2014-Nov-22 15:29N 31°55' E 120°53'0 0.0
2014-Nov-22 14:32N 31°55' E 120°53'0 0.0
2014-Nov-22 13:26N 31°55' E 120°53'0 0.2
2014-Nov-22 12:33N 31°55' E 120°53'8 7.6
2014-Nov-22 11:33N 31°48' E 120°56'1 1.3
2014-Nov-22 10:33N 31°49' E 120°57'0 0.0
2014-Nov-22 08:32N 31°49' E 120°57'0 0.0
2014-Nov-22 04:26N 31°49' E 120°57'0 0.0
2014-Nov-22 03:32N 31°49' E 120°57'0 0.0
2014-Nov-22 02:26N 31°49' E 120°57'0 0.0
2014-Nov-22 01:32N 31°49' E 120°57'0 0.0
2014-Nov-22 00:32N 31°49' E 120°57'0 0.0
2014-Nov-21 23:20N 31°49' E 120°57'0 0.0
2014-Nov-21 22:26N 31°49' E 120°57'0 0.0
2014-Nov-21 21:32N 31°49' E 120°57'0 0.0
2014-Nov-21 19:20N 31°49' E 120°57'0 0.0
2014-Nov-21 18:32N 31°49' E 120°57'0 0.0
2014-Nov-21 16:23N 31°49' E 120°57'0 0.0
2014-Nov-21 15:23N 31°49' E 120°57'0 0.0
2014-Nov-21 14:29N 31°49' E 120°57'0 0.0
2014-Nov-21 13:14N 31°49' E 120°57'0 0.0
2014-Nov-21 12:32N 31°49' E 120°57'0 0.0
2014-Nov-21 11:31N 31°49' E 120°57'0 0.0
2014-Nov-21 10:26N 31°49' E 120°57'0 0.0
2014-Nov-21 09:29N 31°49' E 120°57'0 0.3
2014-Nov-21 08:33N 31°48' E 120°57'9 8.7
2014-Nov-21 07:33N 31°45' E 121°06'1212.3
2014-Nov-21 06:33N 31°36' E 121°17'1111.5
2014-Nov-21 05:33N 31°29' E 121°27'10 9.6
2014-Nov-21 04:33N 31°23' E 121°36'1010.1
2014-Nov-21 03:33N 31°17' E 121°45'1413.8
2014-Nov-21 02:33N 31°07' E 121°57'1211.9
2014-Nov-21 01:33N 31°03' E 122°10'10 9.7
2014-Nov-21 00:33N 31°02' E 122°21'1110.6
2014-Nov-20 23:33N 31°00' E 122°33'271 6.0
2014-Nov-19 02:26N 34°48' E 119°38'910.3
2014-Nov-19 01:33N 34°45' E 119°28'1 0.7
2014-Nov-19 00:34N 34°44' E 119°27'0 0.0
2014-Nov-18 23:27N 34°44' E 119°27'0 0.0
2014-Nov-18 22:33N 34°44' E 119°27'0 0.0
2014-Nov-18 21:33N 34°44' E 119°27'0 0.0
2014-Nov-18 20:33N 34°44' E 119°27'0 0.0
2014-Nov-18 19:33N 34°44' E 119°27'0 0.0
2014-Nov-18 18:33N 34°44' E 119°27'0 0.0
2014-Nov-18 17:33N 34°44' E 119°27'0 0.0
2014-Nov-18 16:27N 34°44' E 119°27'0 0.0
2014-Nov-18 15:33N 34°44' E 119°27'0 0.0
2014-Nov-18 14:27N 34°44' E 119°27'0 0.0
2014-Nov-18 13:33N 34°44' E 119°27'0 0.0
2014-Nov-18 12:27N 34°44' E 119°27'0 0.0
2014-Nov-18 11:34N 34°44' E 119°27'0 0.0
2014-Nov-18 10:27N 34°44' E 119°27'0 0.0
2014-Nov-18 09:33N 34°44' E 119°27'0 0.0
2014-Nov-18 08:27N 34°44' E 119°27'0 0.0
2014-Nov-18 07:33N 34°44' E 119°27'0 0.0
2014-Nov-18 06:33N 34°44' E 119°27'0 0.0
2014-Nov-18 05:33N 34°44' E 119°27'0 0.0
2014-Nov-18 04:33N 34°44' E 119°27'0 0.0
2014-Nov-18 03:33N 34°44' E 119°27'0 0.0
2014-Nov-18 02:27N 34°44' E 119°27'0 0.0
2014-Nov-18 01:33N 34°44' E 119°27'0 0.0
2014-Nov-18 00:15N 34°44' E 119°27'0 0.0
2014-Nov-17 23:33N 34°44' E 119°27'0 0.0
2014-Nov-17 22:33N 34°44' E 119°27'0 0.0
2014-Nov-17 21:33N 34°44' E 119°27'0 0.0
2014-Nov-17 20:33N 34°44' E 119°27'0 0.0
2014-Nov-17 19:33N 34°44' E 119°27'0 0.0
2014-Nov-17 18:33N 34°44' E 119°27'0 0.0
2014-Nov-17 17:33N 34°44' E 119°27'0 0.0
2014-Nov-17 16:33N 34°44' E 119°27'0 0.0
2014-Nov-17 15:33N 34°44' E 119°27'0 0.0
2014-Nov-17 14:27N 34°44' E 119°27'0 0.0
2014-Nov-17 13:33N 34°44' E 119°27'0 0.0
2014-Nov-17 12:27N 34°44' E 119°27'0 0.0
2014-Nov-17 11:27N 34°44' E 119°27'0 0.0
2014-Nov-17 10:33N 34°44' E 119°27'0 0.0
2014-Nov-17 09:33N 34°44' E 119°27'0 0.0
2014-Nov-17 08:27N 34°44' E 119°27'0 0.0
2014-Nov-17 07:33N 34°44' E 119°27'0 0.0
2014-Nov-17 06:33N 34°44' E 119°27'0 0.0
2014-Nov-17 05:27N 34°44' E 119°27'0 0.0
2014-Nov-17 04:33N 34°44' E 119°27'0 0.0
2014-Nov-17 03:33N 34°44' E 119°27'0 0.0
2014-Nov-17 02:33N 34°44' E 119°27'0 0.0
2014-Nov-17 01:33N 34°44' E 119°27'0 0.0
2014-Nov-17 00:33N 34°44' E 119°27'0 0.0
2014-Nov-16 23:33N 34°44' E 119°27'0 0.0
2014-Nov-16 22:27N 34°44' E 119°27'0 0.1
2014-Nov-16 21:33N 34°44' E 119°27'0 0.0
2014-Nov-16 20:33N 34°44' E 119°27'0 0.0
2014-Nov-16 19:33N 34°44' E 119°27'0 0.0
2014-Nov-16 18:33N 34°44' E 119°27'0 0.0
2014-Nov-16 17:33N 34°44' E 119°27'0 0.0
2014-Nov-16 16:33N 34°44' E 119°27'0 0.0
2014-Nov-16 15:33N 34°44' E 119°27'0 0.0
2014-Nov-16 14:33N 34°44' E 119°27'0 0.0
2014-Nov-16 13:33N 34°44' E 119°27'0 0.0
2014-Nov-16 12:33N 34°44' E 119°27'0 0.0
2014-Nov-16 11:33N 34°44' E 119°27'0 0.0
2014-Nov-16 10:33N 34°44' E 119°27'0 0.0
2014-Nov-16 09:33N 34°44' E 119°27'0 0.0
2014-Nov-16 08:33N 34°44' E 119°27'0 0.0
2014-Nov-16 07:33N 34°44' E 119°27'0 0.0
2014-Nov-16 06:33N 34°44' E 119°27'0 0.0
2014-Nov-16 05:33N 34°44' E 119°27'0 0.0
2014-Nov-16 04:33N 34°44' E 119°27'0 0.0
2014-Nov-16 03:33N 34°44' E 119°27'0 0.0
2014-Nov-16 02:33N 34°44' E 119°27'0 0.0
2014-Nov-16 01:27N 34°44' E 119°27'0 0.0
2014-Nov-16 00:33N 34°44' E 119°27'0 0.0
2014-Nov-15 23:33N 34°44' E 119°27'0 0.0
2014-Nov-15 22:33N 34°44' E 119°27'0 0.0
2014-Nov-15 21:33N 34°44' E 119°27'0 0.0
2014-Nov-15 20:33N 34°44' E 119°27'0 0.0
2014-Nov-15 19:33N 34°44' E 119°27'0 0.0
2014-Nov-15 18:33N 34°44' E 119°27'0 0.0
2014-Nov-15 17:33N 34°44' E 119°27'0 0.0
2014-Nov-15 16:33N 34°44' E 119°27'0 0.0
2014-Nov-15 15:33N 34°44' E 119°27'4 3.7
2014-Nov-15 14:33N 34°45' E 119°32'1010.1
2014-Nov-15 13:33N 34°50' E 119°42'4 1.8
2014-Nov-15 11:09N 34°53' E 119°46'2 0.8
2014-Nov-15 08:27N 34°53' E 119°49'  
Track history (hours):
 
Tides and Currents Weather Stations Pressure Air Temp Water Temp Dewpoint Dewpoint Depression Visibility Wind Speed Wind Dir Waves Ship Positions

K&a Sp

Last reported at 2014-Nov-23 10:28 UTC. Time now 2014-Nov-28 17:04 UTC.
Position N 31°06' E 122°27'.

Length 177 m; draft 10.4 m.

Type: Cargo ship. MMSI: 354085000.

Date/timePositionNaut miles runAvg speedWind from/ knotsBaromVisibWave heightAir tempDewpointWater temp
2014-Nov-23 10:28N 31°06' E 122°27'1010.6
2014-Nov-23 09:34N 31°08' E 122°16'1414.3
2014-Nov-23 08:34N 31°15' E 122°01'1313.0
2014-Nov-23 07:33N 31°18' E 121°47'10 9.9
2014-Nov-23 06:33N 31°23' E 121°36'7 7.3
2014-Nov-23 05:33N 31°26' E 121°29'8 7.7
2014-Nov-23 04:33N 31°32' E 121°22'9 9.2
2014-Nov-23 03:33N 31°38' E 121°15'1211.4
2014-Nov-23 02:33N 31°45' E 121°04'1211.8
2014-Nov-23 01:34N 31°53' E 120°53'2 2.2
2014-Nov-23 00:26N 31°55' E 120°53'0 0.0
2014-Nov-22 23:32N 31°55' E 120°53'0 0.0
2014-Nov-22 22:29N 31°55' E 120°53'0 0.0
2014-Nov-22 21:29N 31°55' E 120°53'0 0.2
2014-Nov-22 20:32N 31°55' E 120°53'0 0.1
2014-Nov-22 19:20N 31°55' E 120°53'0 0.0
2014-Nov-22 18:33N 31°55' E 120°53'0 0.0
2014-Nov-22 17:20N 31°55' E 120°53'0 0.2
2014-Nov-22 16:32N 31°55' E 120°53'0 0.1
2014-Nov-22 15:29N 31°55' E 120°53'0 0.0
2014-Nov-22 14:32N 31°55' E 120°53'0 0.0
2014-Nov-22 13:26N 31°55' E 120°53'0 0.2
2014-Nov-22 12:33N 31°55' E 120°53'8 7.6
2014-Nov-22 11:33N 31°48' E 120°56'1 1.3
2014-Nov-22 10:33N 31°49' E 120°57'0 0.0
2014-Nov-22 08:32N 31°49' E 120°57'0 0.0
2014-Nov-22 04:26N 31°49' E 120°57'0 0.0
2014-Nov-22 03:32N 31°49' E 120°57'0 0.0
2014-Nov-22 02:26N 31°49' E 120°57'0 0.0
2014-Nov-22 01:32N 31°49' E 120°57'0 0.0
2014-Nov-22 00:32N 31°49' E 120°57'0 0.0
2014-Nov-21 23:20N 31°49' E 120°57'0 0.0
2014-Nov-21 22:26N 31°49' E 120°57'0 0.0
2014-Nov-21 21:32N 31°49' E 120°57'0 0.0
2014-Nov-21 19:20N 31°49' E 120°57'0 0.0
2014-Nov-21 18:32N 31°49' E 120°57'0 0.0
2014-Nov-21 16:23N 31°49' E 120°57'0 0.0
2014-Nov-21 15:23N 31°49' E 120°57'0 0.0
2014-Nov-21 14:29N 31°49' E 120°57'0 0.0
2014-Nov-21 13:14N 31°49' E 120°57'0 0.0
2014-Nov-21 12:32N 31°49' E 120°57'0 0.0
2014-Nov-21 11:31N 31°49' E 120°57'0 0.0
2014-Nov-21 10:26N 31°49' E 120°57'0 0.0
2014-Nov-21 09:29N 31°49' E 120°57'0 0.3
2014-Nov-21 08:33N 31°48' E 120°57'9 8.7
2014-Nov-21 07:33N 31°45' E 121°06'1212.3
2014-Nov-21 06:33N 31°36' E 121°17'1111.5
2014-Nov-21 05:33N 31°29' E 121°27'10 9.6
2014-Nov-21 04:33N 31°23' E 121°36'1010.1
2014-Nov-21 03:33N 31°17' E 121°45'1413.8
2014-Nov-21 02:33N 31°07' E 121°57'1211.9
2014-Nov-21 01:33N 31°03' E 122°10'10 9.7
2014-Nov-21 00:33N 31°02' E 122°21'1110.6
2014-Nov-20 23:33N 31°00' E 122°33'271 6.0
2014-Nov-19 02:26N 34°48' E 119°38'910.3
2014-Nov-19 01:33N 34°45' E 119°28'1 0.7
2014-Nov-19 00:34N 34°44' E 119°27'0 0.0
2014-Nov-18 23:27N 34°44' E 119°27'0 0.0
2014-Nov-18 22:33N 34°44' E 119°27'0 0.0
2014-Nov-18 21:33N 34°44' E 119°27'0 0.0
2014-Nov-18 20:33N 34°44' E 119°27'0 0.0
2014-Nov-18 19:33N 34°44' E 119°27'0 0.0
2014-Nov-18 18:33N 34°44' E 119°27'0 0.0
2014-Nov-18 17:33N 34°44' E 119°27'0 0.0
2014-Nov-18 16:27N 34°44' E 119°27'0 0.0
2014-Nov-18 15:33N 34°44' E 119°27'0 0.0
2014-Nov-18 14:27N 34°44' E 119°27'0 0.0
2014-Nov-18 13:33N 34°44' E 119°27'0 0.0
2014-Nov-18 12:27N 34°44' E 119°27'0 0.0
2014-Nov-18 11:34N 34°44' E 119°27'0 0.0
2014-Nov-18 10:27N 34°44' E 119°27'0 0.0
2014-Nov-18 09:33N 34°44' E 119°27'0 0.0
2014-Nov-18 08:27N 34°44' E 119°27'0 0.0
2014-Nov-18 07:33N 34°44' E 119°27'0 0.0
2014-Nov-18 06:33N 34°44' E 119°27'0 0.0
2014-Nov-18 05:33N 34°44' E 119°27'0 0.0
2014-Nov-18 04:33N 34°44' E 119°27'0 0.0
2014-Nov-18 03:33N 34°44' E 119°27'0 0.0
2014-Nov-18 02:27N 34°44' E 119°27'0 0.0
2014-Nov-18 01:33N 34°44' E 119°27'0 0.0
2014-Nov-18 00:15N 34°44' E 119°27'0 0.0
2014-Nov-17 23:33N 34°44' E 119°27'0 0.0
2014-Nov-17 22:33N 34°44' E 119°27'0 0.0
2014-Nov-17 21:33N 34°44' E 119°27'0 0.0
2014-Nov-17 20:33N 34°44' E 119°27'0 0.0
2014-Nov-17 19:33N 34°44' E 119°27'0 0.0
2014-Nov-17 18:33N 34°44' E 119°27'0 0.0
2014-Nov-17 17:33N 34°44' E 119°27'0 0.0
2014-Nov-17 16:33N 34°44' E 119°27'0 0.0
2014-Nov-17 15:33N 34°44' E 119°27'0 0.0
2014-Nov-17 14:27N 34°44' E 119°27'0 0.0
2014-Nov-17 13:33N 34°44' E 119°27'0 0.0
2014-Nov-17 12:27N 34°44' E 119°27'0 0.0
2014-Nov-17 11:27N 34°44' E 119°27'0 0.0
2014-Nov-17 10:33N 34°44' E 119°27'0 0.0
2014-Nov-17 09:33N 34°44' E 119°27'0 0.0
2014-Nov-17 08:27N 34°44' E 119°27'0 0.0
2014-Nov-17 07:33N 34°44' E 119°27'0 0.0
2014-Nov-17 06:33N 34°44' E 119°27'0 0.0
2014-Nov-17 05:27N 34°44' E 119°27'0 0.0
2014-Nov-17 04:33N 34°44' E 119°27'0 0.0
2014-Nov-17 03:33N 34°44' E 119°27'0 0.0
2014-Nov-17 02:33N 34°44' E 119°27'0 0.0
2014-Nov-17 01:33N 34°44' E 119°27'0 0.0
2014-Nov-17 00:33N 34°44' E 119°27'0 0.0
2014-Nov-16 23:33N 34°44' E 119°27'0 0.0
2014-Nov-16 22:27N 34°44' E 119°27'0 0.1
2014-Nov-16 21:33N 34°44' E 119°27'0 0.0
2014-Nov-16 20:33N 34°44' E 119°27'0 0.0
2014-Nov-16 19:33N 34°44' E 119°27'0 0.0
2014-Nov-16 18:33N 34°44' E 119°27'0 0.0
2014-Nov-16 17:33N 34°44' E 119°27'0 0.0
2014-Nov-16 16:33N 34°44' E 119°27'0 0.0
2014-Nov-16 15:33N 34°44' E 119°27'0 0.0
2014-Nov-16 14:33N 34°44' E 119°27'0 0.0
2014-Nov-16 13:33N 34°44' E 119°27'0 0.0
2014-Nov-16 12:33N 34°44' E 119°27'0 0.0
2014-Nov-16 11:33N 34°44' E 119°27'0 0.0
2014-Nov-16 10:33N 34°44' E 119°27'0 0.0
2014-Nov-16 09:33N 34°44' E 119°27'0 0.0
2014-Nov-16 08:33N 34°44' E 119°27'0 0.0
2014-Nov-16 07:33N 34°44' E 119°27'0 0.0
2014-Nov-16 06:33N 34°44' E 119°27'0 0.0
2014-Nov-16 05:33N 34°44' E 119°27'0 0.0
2014-Nov-16 04:33N 34°44' E 119°27'0 0.0
2014-Nov-16 03:33N 34°44' E 119°27'0 0.0
2014-Nov-16 02:33N 34°44' E 119°27'0 0.0
2014-Nov-16 01:27N 34°44' E 119°27'0 0.0
2014-Nov-16 00:33N 34°44' E 119°27'0 0.0
2014-Nov-15 23:33N 34°44' E 119°27'0 0.0
2014-Nov-15 22:33N 34°44' E 119°27'0 0.0
2014-Nov-15 21:33N 34°44' E 119°27'0 0.0
2014-Nov-15 20:33N 34°44' E 119°27'0 0.0
2014-Nov-15 19:33N 34°44' E 119°27'0 0.0
2014-Nov-15 18:33N 34°44' E 119°27'0 0.0
2014-Nov-15 17:33N 34°44' E 119°27'0 0.0
2014-Nov-15 16:33N 34°44' E 119°27'0 0.0
2014-Nov-15 15:33N 34°44' E 119°27'4 3.7
2014-Nov-15 14:33N 34°45' E 119°32'1010.1
2014-Nov-15 13:33N 34°50' E 119°42'4 1.8
2014-Nov-15 11:09N 34°53' E 119°46'2 0.8
2014-Nov-15 08:27N 34°53' E 119°49'  

Dump ship's entire track history